Time;durP1;ratioP1;P1;durP2;ratioP2;P2;SDS_P1;SDS_P2;PMS_P1;PMS_P2;Temp;Humidity;BMP_temperature;BMP_pressure;BME280_temperature;BME280_humidity;BME280_pressure;Samples;Min_cycle;Max_cycle;Signal;HPM_P1;HPM_P2
2022/08/09 00:00:09;;;;;;;2.30;1.47;;;16.30;99.90;;;;;;5025108;28;20332;-64
2022/08/09 00:02:39;;;;;;;1.77;1.57;;;16.30;99.90;;;;;;5030210;28;20244;-64
2022/08/09 00:05:17;;;;;;;1.40;1.30;;;16.20;99.90;;;;;;5034393;28;20229;-64
2022/08/09 00:08:09;;;;;;;1.63;1.40;;;16.20;99.90;;;;;;5030232;28;20218;-64
2022/08/09 00:10:39;;;;;;;2.53;1.80;;;16.20;99.90;;;;;;5019116;28;20228;-64
2022/08/09 00:13:07;;;;;;;1.83;1.47;;;16.10;99.90;;;;;;5026987;28;20225;-64
2022/08/09 00:15:46;;;;;;;2.60;1.63;;;16.10;99.90;;;;;;5030814;28;20225;-64
2022/08/09 00:18:30;;;;;;;2.47;1.53;;;16.10;99.90;;;;;;5023394;28;20640;-64
2022/08/09 00:21:04;;;;;;;2.00;1.77;;;16.00;99.90;;;;;;5014534;28;20312;-64
2022/08/09 00:23:36;;;;;;;1.83;1.60;;;16.00;99.90;;;;;;5024909;28;20676;-64
2022/08/09 00:26:25;;;;;;;1.97;1.70;;;16.00;99.90;;;;;;5027959;28;20327;-64
2022/08/09 00:29:01;;;;;;;2.70;1.40;;;16.00;99.90;;;;;;5025740;28;20232;-64
2022/08/09 00:31:31;;;;;;;1.77;1.60;;;16.00;99.90;;;;;;5025087;28;20282;-64
2022/08/09 00:34:19;;;;;;;2.13;1.77;;;15.90;99.90;;;;;;5032335;28;20239;-64
2022/08/09 00:36:48;;;;;;;2.43;1.80;;;15.90;99.90;;;;;;5033259;28;20754;-64
2022/08/09 00:39:17;;;;;;;2.03;1.53;;;15.90;99.90;;;;;;5032709;28;20268;-64
2022/08/09 00:42:05;;;;;;;2.03;1.60;;;15.80;99.90;;;;;;5021536;28;20719;-64
2022/08/09 00:44:54;;;;;;;2.10;1.63;;;15.80;99.90;;;;;;5034099;28;20224;-64
2022/08/09 00:47:23;;;;;;;1.70;1.60;;;15.80;99.90;;;;;;5029640;28;20277;-64
2022/08/09 00:49:53;;;;;;;2.13;1.70;;;15.70;99.90;;;;;;5016164;28;20236;-64
2022/08/09 00:52:25;;;;;;;1.90;1.70;;;15.70;99.90;;;;;;5014681;28;20665;-64
2022/08/09 00:54:59;;;;;;;2.03;1.80;;;15.60;99.90;;;;;;5031603;28;20220;-64
2022/08/09 00:57:30;;;;;;;1.67;1.57;;;15.60;99.90;;;;;;5018055;28;20252;-64
2022/08/09 01:00:01;;;;;;;2.13;1.60;;;15.60;99.90;;;;;;5025015;28;20244;-64
2022/08/09 01:02:50;;;;;;;2.13;1.57;;;15.60;99.90;;;;;;5030458;28;20252;-64
2022/08/09 01:05:28;;;;;;;1.60;1.50;;;15.50;99.90;;;;;;5033860;28;20617;-64
2022/08/09 01:08:23;;;;;;;1.83;1.70;;;15.50;99.90;;;;;;5025960;28;20216;-64
2022/08/09 01:11:07;;;;;;;1.77;1.67;;;15.50;99.90;;;;;;5013728;28;20577;-64
2022/08/09 01:13:45;;;;;;;2.03;1.77;;;15.40;99.90;;;;;;5025514;28;20225;-64
2022/08/09 01:16:31;;;;;;;2.03;1.40;;;15.40;99.90;;;;;;5013719;28;20240;-64
2022/08/09 01:19:13;;;;;;;1.40;1.30;;;15.40;99.90;;;;;;5019193;28;20249;-64
2022/08/09 01:22:14;;;;;;;1.43;1.33;;;15.30;99.90;;;;;;5031785;28;20228;-64
2022/08/09 01:24:54;;;;;;;1.50;1.40;;;15.30;99.90;;;;;;5029549;28;20584;-64
2022/08/09 01:27:26;;;;;;;1.67;1.40;;;15.30;99.90;;;;;;5016297;28;20239;-64
2022/08/09 01:29:59;;;;;;;1.93;1.50;;;15.20;99.90;;;;;;5025088;28;20235;-64
2022/08/09 01:32:33;;;;;;;1.70;1.60;;;15.20;99.90;;;;;;5016282;28;20233;-64
2022/08/09 01:35:15;;;;;;;2.47;1.60;;;15.20;99.90;;;;;;5013275;28;20232;-64
2022/08/09 01:38:08;;;;;;;1.80;1.70;;;15.20;99.90;;;;;;5021279;28;20220;-64
2022/08/09 01:40:48;;;;;;;2.20;1.57;;;15.20;99.90;;;;;;5024480;28;20296;-64
2022/08/09 01:43:33;;;;;;;2.13;2.00;;;15.20;99.90;;;;;;5025390;28;20225;-64
2022/08/09 01:46:21;;;;;;;2.10;1.90;;;15.20;99.90;;;;;;5013369;28;20237;-64
2022/08/09 01:48:58;;;;;;;2.03;1.70;;;15.20;99.90;;;;;;5018723;28;20243;-64
2022/08/09 01:51:39;;;;;;;1.70;1.60;;;15.10;99.90;;;;;;5013059;28;20681;-65
2022/08/09 01:54:13;;;;;;;2.30;2.00;;;15.10;99.90;;;;;;5024915;28;20643;-64
2022/08/09 01:56:44;;;;;;;2.10;1.73;;;15.10;99.90;;;;;;5028777;28;20236;-64
2022/08/09 01:59:22;;;;;;;1.70;1.60;;;15.10;99.90;;;;;;5030724;28;20256;-64
2022/08/09 02:01:54;;;;;;;1.70;1.60;;;15.00;99.90;;;;;;5024137;28;20314;-64
2022/08/09 02:04:30;;;;;;;1.73;1.63;;;15.00;99.90;;;;;;5032515;28;20230;-64
2022/08/09 02:07:09;;;;;;;2.23;1.93;;;15.00;99.90;;;;;;5032380;28;20319;-64
2022/08/09 02:09:59;;;;;;;3.03;1.93;;;14.90;99.90;;;;;;5022653;28;20231;-64
2022/08/09 02:12:33;;;;;;;3.33;1.90;;;14.80;99.90;;;;;;5023097;28;20274;-64
2022/08/09 02:15:06;;;;;;;3.50;1.83;;;14.80;99.90;;;;;;5024229;28;20230;-64
2022/08/09 02:17:41;;;;;;;2.70;2.00;;;14.80;99.90;;;;;;5029281;28;20706;-64
2022/08/09 02:20:31;;;;;;;2.43;2.23;;;14.80;99.90;;;;;;5013958;28;20220;-64
2022/08/09 02:23:06;;;;;;;1.83;1.73;;;14.80;99.90;;;;;;5025833;28;20271;-64
2022/08/09 02:25:38;;;;;;;2.27;2.00;;;14.70;99.90;;;;;;5035715;28;20234;-64
2022/08/09 02:28:14;;;;;;;2.63;1.93;;;14.70;99.90;;;;;;5034510;28;20224;-64
2022/08/09 02:30:50;;;;;;;2.90;2.30;;;14.60;99.90;;;;;;5027554;28;20244;-64
2022/08/09 02:33:23;;;;;;;2.40;1.90;;;14.60;99.90;;;;;;5034978;28;20229;-63
2022/08/09 02:36:10;;;;;;;2.27;1.93;;;14.60;99.90;;;;;;5036180;28;20231;-64
2022/08/09 02:38:44;;;;;;;3.67;1.93;;;14.60;99.90;;;;;;5026678;28;20271;-64
2022/08/09 02:41:23;;;;;;;2.00;1.80;;;14.50;99.90;;;;;;5016487;28;20236;-64
2022/08/09 02:43:54;;;;;;;2.43;1.70;;;14.50;99.90;;;;;;5035996;28;20588;-64
2022/08/09 02:46:27;;;;;;;2.03;1.80;;;14.50;99.90;;;;;;5035903;28;20238;-64
2022/08/09 02:49:01;;;;;;;3.60;2.00;;;14.50;99.90;;;;;;5027989;28;20251;-64
2022/08/09 02:51:34;;;;;;;2.30;2.10;;;14.40;99.90;;;;;;5016843;28;20236;-64
2022/08/09 02:54:10;;;;;;;2.40;2.20;;;14.50;99.90;;;;;;5027767;28;20225;-64
2022/08/09 02:56:45;;;;;;;2.40;2.20;;;14.40;99.90;;;;;;5034810;28;20319;-64
2022/08/09 02:59:22;;;;;;;2.20;2.00;;;14.40;99.90;;;;;;5034241;28;20232;-64
2022/08/09 03:02:05;;;;;;;2.13;1.90;;;14.40;99.90;;;;;;5016150;28;20237;-64
2022/08/09 03:04:40;;;;;;;2.00;1.80;;;14.30;99.90;;;;;;5016149;28;20673;-64
2022/08/09 03:07:09;;;;;;;1.60;1.50;;;14.30;99.90;;;;;;5022928;28;20232;-64
2022/08/09 03:09:44;;;;;;;2.17;1.60;;;14.30;99.90;;;;;;5033647;28;20221;-64
2022/08/09 03:12:25;;;;;;;1.80;1.67;;;14.30;99.90;;;;;;5025274;28;20252;-64
2022/08/09 03:14:56;;;;;;;1.97;1.73;;;14.30;99.90;;;;;;5027170;28;20378;-64
2022/08/09 03:17:26;;;;;;;1.97;1.80;;;14.20;99.90;;;;;;5034027;28;20236;-64
2022/08/09 03:19:58;;;;;;;2.20;2.00;;;14.30;99.90;;;;;;5025333;28;20234;-64
2022/08/09 03:22:36;;;;;;;2.33;1.83;;;14.20;99.90;;;;;;5028634;28;20240;-64
2022/08/09 03:25:11;;;;;;;2.60;2.40;;;14.20;99.90;;;;;;5027446;28;20228;-64
2022/08/09 03:28:02;;;;;;;2.40;2.20;;;14.20;99.90;;;;;;5031740;28;20696;-64
2022/08/09 03:30:30;;;;;;;2.37;2.13;;;14.20;99.90;;;;;;5027456;28;20279;-64
2022/08/09 03:33:07;;;;;;;2.13;1.93;;;14.20;99.90;;;;;;5015660;28;20252;-64
2022/08/09 03:35:47;;;;;;;2.77;2.20;;;14.20;99.90;;;;;;5018712;28;20283;-64
2022/08/09 03:38:36;;;;;;;2.87;2.47;;;14.20;99.90;;;;;;5029082;28;20320;-64
2022/08/09 03:41:10;;;;;;;2.77;2.30;;;14.20;99.90;;;;;;5031040;28;20232;-64
2022/08/09 03:43:44;;;;;;;2.53;2.33;;;14.20;99.90;;;;;;5030912;28;20225;-64
2022/08/09 03:46:32;;;;;;;2.33;2.13;;;14.10;99.90;;;;;;5015022;28;20688;-64
2022/08/09 03:49:03;;;;;;;2.30;2.10;;;14.10;99.90;;;;;;5026025;28;20234;-64
2022/08/09 03:51:40;;;;;;;2.87;2.20;;;14.10;99.90;;;;;;5029228;28;20224;-64
2022/08/09 03:54:29;;;;;;;2.30;2.10;;;14.10;99.90;;;;;;5034426;28;20229;-64
2022/08/09 03:57:03;;;;;;;2.70;2.50;;;14.10;99.90;;;;;;5034266;28;20694;-64
2022/08/09 03:59:48;;;;;;;2.43;2.23;;;14.10;99.90;;;;;;5024572;28;20231;-64
2022/08/09 04:02:25;;;;;;;2.23;2.10;;;14.10;99.90;;;;;;5014289;28;20235;-64
2022/08/09 04:04:59;;;;;;;3.17;2.87;;;14.00;99.90;;;;;;5014714;28;20228;-64
2022/08/09 04:07:28;;;;;;;2.70;2.50;;;14.00;99.90;;;;;;5029513;28;20237;-63
2022/08/09 04:10:19;;;;;;;3.90;2.70;;;14.00;99.90;;;;;;5015373;28;20231;-64
2022/08/09 04:12:59;;;;;;;4.67;3.13;;;14.00;99.90;;;;;;5026860;28;20220;-64
2022/08/09 04:15:30;;;;;;;2.80;2.60;;;14.10;99.90;;;;;;5029357;28;20680;-64
2022/08/09 04:18:19;;;;;;;3.73;3.07;;;14.10;99.90;;;;;;5028343;28;20217;-64
2022/08/09 04:20:50;;;;;;;2.87;2.60;;;14.10;99.90;;;;;;5029454;28;20322;-64
2022/08/09 04:23:19;;;;;;;3.07;2.50;;;14.10;99.90;;;;;;5022961;28;20311;-64
2022/08/09 04:25:53;;;;;;;2.60;2.40;;;14.20;99.90;;;;;;5034257;28;20216;-64
2022/08/09 04:28:22;;;;;;;2.50;2.30;;;14.20;99.90;;;;;;5032968;28;20645;-64
2022/08/09 04:31:07;;;;;;;3.50;3.20;;;14.30;99.90;;;;;;5032853;28;20256;-64
2022/08/09 04:33:41;;;;;;;5.37;3.77;;;14.40;99.90;;;;;;5033859;28;20227;-64
2022/08/09 04:36:26;;;;;;;3.17;2.93;;;14.40;99.90;;;;;;5034110;28;20239;-64
2022/08/09 04:38:56;;;;;;;3.30;3.10;;;14.50;99.90;;;;;;5017935;28;20257;-64
2022/08/09 04:41:27;;;;;;;2.97;2.40;;;14.50;99.90;;;;;;5033556;28;20298;-64
2022/08/09 04:44:01;;;;;;;2.83;2.53;;;14.60;99.90;;;;;;5022661;28;20224;-64
2022/08/09 04:46:37;;;;;;;3.17;2.50;;;14.60;99.90;;;;;;5013717;28;20335;-64
2022/08/09 04:49:26;;;;;;;2.17;2.03;;;14.60;99.90;;;;;;5032369;28;20227;-64
2022/08/09 04:52:15;;;;;;;2.17;1.97;;;14.70;99.90;;;;;;5026034;28;20296;-64
2022/08/09 04:54:53;;;;;;;1.90;1.80;;;14.80;99.90;;;;;;5031555;28;20561;-64
2022/08/09 04:57:21;;;;;;;1.73;1.63;;;14.80;99.90;;;;;;5032673;28;20315;-64
2022/08/09 04:59:53;;;;;;;1.50;1.40;;;14.90;99.90;;;;;;5020518;28;20228;-64
2022/08/09 05:02:21;;;;;;;2.63;2.00;;;14.90;99.90;;;;;;5018190;28;20338;-64
2022/08/09 05:04:50;;;;;;;2.33;2.13;;;15.00;99.90;;;;;;5030056;28;20601;-64
2022/08/09 05:07:24;;;;;;;2.63;2.40;;;15.10;99.90;;;;;;5031938;28;20708;-64
2022/08/09 05:09:59;;;;;;;3.40;3.10;;;15.20;99.90;;;;;;5020850;28;20221;-64
2022/08/09 05:12:30;;;;;;;3.67;3.37;;;15.40;99.90;;;;;;5029178;28;20229;-64
2022/08/09 05:15:02;;;;;;;3.77;3.47;;;15.50;99.90;;;;;;5025129;28;20225;-64
2022/08/09 05:17:39;;;;;;;4.90;4.30;;;15.60;99.90;;;;;;5017814;28;20302;-64
2022/08/09 05:20:28;;;;;;;5.40;4.53;;;15.80;99.90;;;;;;5025268;28;20221;-64
2022/08/09 05:22:59;;;;;;;5.07;4.60;;;15.90;99.90;;;;;;5018791;28;20259;-64
2022/08/09 05:25:47;;;;;;;4.00;3.60;;;16.00;99.90;;;;;;5030031;28;20228;-64
2022/08/09 05:28:18;;;;;;;4.67;4.13;;;16.10;99.90;;;;;;5027093;28;20237;-64
2022/08/09 05:30:47;;;;;;;5.10;4.53;;;16.30;99.90;;;;;;5026464;28;20656;-64
2022/08/09 05:33:18;;;;;;;5.20;4.10;;;16.40;99.90;;;;;;5024546;28;20216;-64
2022/08/09 05:35:53;;;;;;;5.07;4.30;;;16.60;99.90;;;;;;5031321;28;20230;-64
2022/08/09 05:38:25;;;;;;;7.27;4.40;;;16.60;99.90;;;;;;5032131;28;20814;-64
2022/08/09 05:40:55;;;;;;;5.73;4.63;;;16.80;99.90;;;;;;5028186;28;20224;-64
2022/08/09 05:43:23;;;;;;;6.63;4.60;;;16.90;99.90;;;;;;5025578;28;20244;-64
2022/08/09 05:45:58;;;;;;;4.00;3.70;;;17.00;99.90;;;;;;5030693;28;20676;-64
2022/08/09 05:48:27;;;;;;;5.37;4.50;;;17.20;99.90;;;;;;5031175;28;20236;-64
2022/08/09 05:51:01;;;;;;;4.30;4.00;;;17.30;99.90;;;;;;5032644;28;20228;-64
2022/08/09 05:53:51;;;;;;;4.27;3.87;;;17.40;99.90;;;;;;5033389;28;20217;-64
2022/08/09 05:56:27;;;;;;;5.03;4.00;;;17.60;99.90;;;;;;5039255;28;20224;-64
2022/08/09 05:58:57;;;;;;;5.50;4.13;;;17.70;99.90;;;;;;5038104;28;20232;-64
2022/08/09 06:01:27;;;;;;;5.03;4.53;;;17.90;99.90;;;;;;5032578;28;20720;-64
2022/08/09 06:04:09;;;;;;;5.07;3.97;;;18.10;99.90;;;;;;5031093;28;20688;-64
2022/08/09 06:06:39;;;;;;;5.40;3.40;;;18.30;99.90;;;;;;5022855;28;20264;-64
2022/08/09 06:09:18;;;;;;;4.40;4.00;;;18.40;99.90;;;;;;5036505;28;20228;-64
2022/08/09 06:12:07;;;;;;;4.40;4.00;;;18.70;99.90;;;;;;5032831;28;20226;-64
2022/08/09 06:14:36;;;;;;;4.63;3.53;;;18.90;99.90;;;;;;5037229;28;20225;-64
2022/08/09 06:17:04;;;;;;;4.97;3.50;;;19.00;99.90;;;;;;5038085;28;20240;-64
2022/08/09 06:19:37;;;;;;;5.00;3.70;;;19.10;99.90;;;;;;5030912;28;20235;-64
2022/08/09 06:22:06;;;;;;;4.97;4.03;;;19.20;99.90;;;;;;5032598;28;20633;-64
2022/08/09 06:24:43;;;;;;;4.97;4.10;;;19.30;99.90;;;;;;5027139;28;20298;-64
2022/08/09 06:27:13;;;;;;;4.20;3.80;;;19.50;99.90;;;;;;5026560;28;20239;-64
2022/08/09 06:29:43;;;;;;;4.13;3.73;;;19.60;99.90;;;;;;5025999;28;20222;-64
2022/08/09 06:32:31;;;;;;;3.80;3.30;;;19.80;99.90;;;;;;5033548;28;20694;-63
2022/08/09 06:35:19;;;;;;;3.83;3.13;;;20.00;99.90;;;;;;5036843;28;20247;-64
2022/08/09 06:38:02;;;;;;;5.13;3.30;;;20.20;99.90;;;;;;5033920;28;20568;-63
2022/08/09 06:40:35;;;;;;;6.40;4.00;;;20.30;99.90;;;;;;5033005;28;20235;-63
2022/08/09 06:43:03;;;;;;;4.70;3.53;;;20.40;99.90;;;;;;5033469;28;20233;-63
2022/08/09 06:45:38;;;;;;;4.67;3.77;;;20.60;99.90;;;;;;5038532;28;20218;-62
2022/08/09 06:48:26;;;;;;;5.47;3.97;;;20.70;99.90;;;;;;5031935;28;20241;-63
2022/08/09 06:50:58;;;;;;;7.13;3.90;;;20.90;99.90;;;;;;5030704;28;20231;-64
2022/08/09 06:53:27;;;;;;;5.43;4.17;;;20.80;99.90;;;;;;5027316;28;20685;-63
2022/08/09 06:56:07;;;;;;;3.90;3.50;;;20.70;99.90;;;;;;5030385;28;20232;-63
2022/08/09 06:58:37;;;;;;;3.73;3.27;;;20.90;99.90;;;;;;5030179;28;20228;-62
2022/08/09 07:01:25;;;;;;;5.63;3.27;;;21.10;99.90;;;;;;5025233;28;20243;-63
2022/08/09 07:04:13;;;;;;;3.77;3.10;;;21.50;99.90;;;;;;5038884;28;20236;-66
2022/08/09 07:06:47;;;;;;;3.77;3.43;;;21.80;99.90;;;;;;5034516;28;20683;-65
2022/08/09 07:09:20;;;;;;;3.53;3.07;;;21.80;99.90;;;;;;5031522;28;20700;-65
2022/08/09 07:12:10;;;;;;;3.10;2.53;;;21.80;99.90;;;;;;5028788;28;20712;-66
2022/08/09 07:14:45;;;;;;;5.13;3.40;;;22.10;99.90;;;;;;5031992;28;20335;-65
2022/08/09 07:17:20;;;;;;;4.90;3.10;;;22.40;99.90;;;;;;5033705;28;20262;-66
2022/08/09 07:19:49;;;;;;;4.07;2.90;;;22.60;99.90;;;;;;5030718;28;20315;-65
2022/08/09 07:22:22;;;;;;;3.93;2.97;;;22.70;99.90;;;;;;5030654;28;20233;-66
2022/08/09 07:25:02;;;;;;;4.37;2.77;;;22.90;99.90;;;;;;5024460;28;20324;-65
2022/08/09 07:27:37;;;;;;;5.37;2.80;;;23.10;99.90;;;;;;5029513;28;20227;-66
2022/08/09 07:30:13;;;;;;;2.30;2.10;;;23.30;99.90;;;;;;5023993;28;20226;-66
2022/08/09 07:32:42;;;;;;;3.47;2.83;;;23.60;99.90;;;;;;5023611;28;20735;-66
2022/08/09 07:35:13;;;;;;;3.47;2.47;;;23.60;99.90;;;;;;5015494;28;20613;-66
2022/08/09 07:37:44;;;;;;;5.17;3.10;;;23.80;99.90;;;;;;5021472;28;20316;-66
2022/08/09 07:40:17;;;;;;;2.83;2.57;;;24.00;99.90;;;;;;5022696;28;20235;-66
2022/08/09 07:42:57;;;;;;;3.33;2.50;;;24.20;99.90;;;;;;5033634;28;20240;-66
2022/08/09 07:45:26;;;;;;;4.30;2.47;;;24.20;99.90;;;;;;5026753;28;20319;-66
2022/08/09 07:48:09;;;;;;;4.03;2.83;;;24.20;99.90;;;;;;5020681;28;20233;-66
2022/08/09 07:50:58;;;;;;;5.40;2.80;;;24.50;99.90;;;;;;5019259;28;20670;-66
2022/08/09 07:53:48;;;;;;;2.93;2.40;;;24.70;99.90;;;;;;5023605;28;20225;-66
2022/08/09 07:56:36;;;;;;;3.40;2.60;;;24.80;99.90;;;;;;5034636;28;20774;-66
2022/08/09 07:59:19;;;;;;;3.33;2.50;;;24.60;99.90;;;;;;5025969;28;20450;-66
2022/08/09 08:02:07;;;;;;;6.60;2.80;;;24.80;99.90;;;;;;5032192;28;20715;-61
2022/08/09 08:04:37;;;;;;;3.53;1.97;;;25.20;99.90;;;;;;5034427;28;20720;-61
2022/08/09 08:07:05;;;;;;;5.90;2.30;;;25.30;99.90;;;;;;5037366;28;20220;-61
2022/08/09 08:09:54;;;;;;;3.63;2.23;;;25.40;99.90;;;;;;5025646;28;20217;-62
2022/08/09 08:12:37;;;;;;;4.57;2.40;;;25.60;99.90;;;;;;5032137;28;20248;-62
2022/08/09 08:15:14;;;;;;;10.23;2.90;;;25.60;99.90;;;;;;5029785;28;20220;-63
2022/08/09 08:17:44;;;;;;;4.37;1.90;;;25.40;99.90;;;;;;5025026;28;20223;-62
2022/08/09 08:20:23;;;;;;;3.23;2.03;;;25.60;99.90;;;;;;5038492;28;20259;-63
2022/08/09 08:23:01;;;;;;;2.83;2.20;;;25.60;99.90;;;;;;5034087;28;20238;-66
2022/08/09 08:25:45;;;;;;;1.97;1.83;;;25.40;99.90;;;;;;5039825;28;20240;-74
2022/08/09 08:28:20;;;;;;;3.60;1.93;;;25.40;99.90;;;;;;5031217;28;20234;-72
2022/08/09 08:31:01;;;;;;;4.43;1.70;;;25.80;99.90;;;;;;5016997;28;20257;-73
2022/08/09 08:33:42;;;;;;;2.83;1.80;;;25.90;99.90;;;;;;5030502;28;20224;-73
2022/08/09 08:36:24;;;;;;;3.10;1.70;;;25.90;99.90;;;;;;5033773;28;20464;-66
2022/08/09 08:38:57;;;;;;;4.63;1.50;;;26.10;99.90;;;;;;5027641;28;20817;-66
2022/08/09 08:41:27;;;;;;;1.80;1.40;;;25.80;99.90;;;;;;5022725;28;20227;-63
2022/08/09 08:44:18;;;;;;;5.37;1.57;;;26.00;99.90;;;;;;5032073;28;20217;-61
2022/08/09 08:46:57;;;;;;;6.53;1.77;;;26.40;99.90;;;;;;5027181;28;20250;-61
2022/08/09 08:49:32;;;;;;;2.10;1.90;;;26.50;99.90;;;;;;5027140;28;20232;-62
2022/08/09 08:52:17;;;;;;;1.67;1.53;;;26.30;99.90;;;;;;5030283;28;20471;-61
2022/08/09 08:55:06;;;;;;;1.67;1.40;;;25.70;99.90;;;;;;5032246;28;20737;-61
2022/08/09 08:57:35;;;;;;;2.10;1.20;;;25.80;99.90;;;;;;5031155;28;20698;-61
2022/08/09 09:00:07;;;;;;;2.30;1.40;;;26.30;99.90;;;;;;5027221;28;20242;-61
2022/08/09 09:02:51;;;;;;;2.37;1.30;;;26.50;99.90;;;;;;5025989;28;20749;-62
2022/08/09 09:05:24;;;;;;;2.10;1.70;;;26.90;99.90;;;;;;5028064;28;20285;-64
2022/08/09 09:08:14;;;;;;;2.77;1.50;;;27.00;99.90;;;;;;5023019;28;20568;-63
2022/08/09 09:11:02;;;;;;;3.00;1.40;;;27.20;99.90;;;;;;5023774;28;20263;-62
2022/08/09 09:13:33;;;;;;;2.50;1.40;;;27.50;99.90;;;;;;5030561;28;20441;-60
2022/08/09 09:16:21;;;;;;;1.52;1.10;;;27.40;99.90;;;;;;5029337;28;20429;-60
2022/08/09 09:19:00;;;;;;;2.60;1.20;;;27.20;99.90;;;;;;5031236;28;20668;-60
2022/08/09 09:21:59;;;;;;;1.97;1.47;;;27.10;99.90;;;;;;5021936;28;20238;-62
2022/08/09 09:24:33;;;;;;;4.87;1.50;;;27.20;99.90;;;;;;5032264;28;20739;-62
2022/08/09 09:27:02;;;;;;;4.00;1.27;;;27.20;99.90;;;;;;5031335;28;20282;-63
2022/08/09 09:29:33;;;;;;;3.47;1.33;;;27.40;99.90;;;;;;5021177;28;20315;-62
2022/08/09 09:32:22;;;;;;;2.20;1.37;;;27.70;99.90;;;;;;5019887;28;20623;-62
2022/08/09 09:35:05;;;;;;;2.10;1.30;;;27.70;99.90;;;;;;5025722;28;20685;-62
2022/08/09 09:37:37;;;;;;;2.37;1.60;;;27.60;99.90;;;;;;5029716;28;20332;-62
2022/08/09 09:40:09;;;;;;;2.70;1.00;;;27.50;99.90;;;;;;5019060;28;20232;-63
2022/08/09 09:42:39;;;;;;;4.55;1.23;;;27.20;99.90;;;;;;5026642;28;20505;-65
2022/08/09 09:45:13;;;;;;;3.07;1.13;;;27.00;99.90;;;;;;5027351;28;20263;-65
2022/08/09 09:47:56;;;;;;;2.58;1.15;;;26.50;99.90;;;;;;5027720;28;20929;-60
2022/08/09 09:50:43;;;;;;;3.30;1.00;;;26.40;99.90;;;;;;5029231;28;20286;-64
2022/08/09 09:53:20;;;;;;;1.47;1.10;;;26.40;99.90;;;;;;5031950;28;20319;-65
2022/08/09 09:56:02;;;;;;;1.80;1.00;;;26.50;99.90;;;;;;5024328;28;20588;-65
2022/08/09 09:58:45;;;;;;;1.87;0.90;;;26.80;99.90;;;;;;5030687;28;20715;-66
2022/08/09 10:01:20;;;;;;;4.00;1.10;;;27.10;99.90;;;;;;5012336;28;20748;-67
2022/08/09 10:04:13;;;;;;;3.33;1.20;;;27.20;99.90;;;;;;5013576;28;20763;-67
2022/08/09 10:06:51;;;;;;;2.43;1.10;;;27.30;99.90;;;;;;5023409;28;20238;-67
2022/08/09 10:09:21;;;;;;;1.23;0.90;;;27.50;99.90;;;;;;5026174;28;20721;-66
2022/08/09 10:11:59;;;;;;;2.43;1.20;;;27.60;99.90;;;;;;5031840;28;20224;-67
2022/08/09 10:14:47;;;;;;;3.37;1.20;;;27.70;99.90;;;;;;5029208;28;20706;-67
2022/08/09 10:17:18;;;;;;;2.87;0.90;;;28.10;99.90;;;;;;5025442;28;20613;-63
2022/08/09 10:20:24;;;;;;;2.47;1.07;;;28.40;99.90;;;;;;5028304;28;20252;-64
2022/08/09 10:23:14;;;;;;;2.80;1.20;;;27.60;99.90;;;;;;5022362;28;20774;-64
2022/08/09 10:25:47;;;;;;;1.90;0.97;;;27.90;99.90;;;;;;5027252;28;20242;-64
2022/08/09 10:28:36;;;;;;;1.60;1.17;;;28.40;99.90;;;;;;5024286;28;20217;-60
2022/08/09 10:31:08;;;;;;;1.43;0.90;;;28.80;99.90;;;;;;5027291;28;20299;-60
2022/08/09 10:33:57;;;;;;;5.90;1.30;;;28.90;99.90;;;;;;5031130;28;20221;-65
2022/08/09 10:36:45;;;;;;;4.40;1.30;;;29.50;99.90;;;;;;5027326;28;20232;-64
2022/08/09 10:39:17;;;;;;;2.47;1.03;;;30.00;99.90;;;;;;5018152;28;20687;-64
2022/08/09 10:41:47;;;;;;;3.83;1.33;;;30.40;99.90;;;;;;5020598;28;20582;-65
2022/08/09 10:44:19;;;;;;;2.43;1.10;;;30.20;99.90;;;;;;5030791;28;20732;-64
2022/08/09 10:47:13;;;;;;;2.93;1.10;;;30.30;99.90;;;;;;5033494;28;20236;-65
2022/08/09 10:50:06;;;;;;;2.50;0.90;;;30.90;99.90;;;;;;5016853;28;20577;-64
2022/08/09 10:53:13;;;;;;;1.70;0.90;;;31.20;99.90;;;;;;5024570;28;20260;-65
2022/08/09 10:55:46;;;;;;;2.80;1.03;;;31.50;99.90;;;;;;5014503;28;20321;-65
2022/08/09 10:58:30;;;;;;;4.50;1.10;;;31.20;99.90;;;;;;5025488;28;20580;-65
2022/08/09 11:01:00;;;;;;;1.50;0.93;;;31.10;99.90;;;;;;5034652;28;20290;-65
2022/08/09 11:04:14;;;;;;;2.10;0.93;;;31.40;99.90;;;;;;5031576;28;20230;-65
2022/08/09 11:07:28;;;;;;;2.20;1.00;;;31.50;99.90;;;;;;5023955;28;20315;-66
2022/08/09 11:10:16;;;;;;;2.87;1.13;;;31.30;99.90;;;;;;5025803;28;20711;-65
2022/08/09 11:13:17;;;;;;;1.63;0.90;;;31.30;99.90;;;;;;5035096;28;20232;-65
2022/08/09 11:16:34;;;;;;;2.33;1.10;;;30.90;99.00;;;;;;5021621;28;20575;-65
2022/08/09 11:19:06;;;;;;;1.47;1.10;;;30.10;99.90;;;;;;5029548;28;20648;-65
2022/08/09 11:21:57;;;;;;;3.17;1.10;;;30.50;99.90;;;;;;5030854;28;20236;-64
2022/08/09 11:25:08;;;;;;;1.63;1.00;;;31.00;99.90;;;;;;5022930;28;20597;-65
2022/08/09 11:27:39;;;;;;;4.33;1.03;;;31.20;98.90;;;;;;5019651;28;20309;-64
2022/08/09 11:30:34;;;;;;;2.47;0.80;;;31.40;99.90;;;;;;5026663;28;20587;-65
2022/08/09 11:33:05;;;;;;;1.77;0.90;;;31.60;99.90;;;;;;5034093;28;20233;-65
2022/08/09 11:35:37;;;;;;;1.63;1.00;;;31.40;97.80;;;;;;5031980;28;20232;-65
2022/08/09 11:38:20;;;;;;;1.37;0.90;;;31.60;99.20;;;;;;5020697;28;20235;-65
2022/08/09 11:40:56;;;;;;;2.00;0.90;;;31.50;97.90;;;;;;5014830;28;20284;-64
2022/08/09 11:43:41;;;;;;;1.87;0.90;;;31.70;99.20;;;;;;5032664;28;20307;-65
2022/08/09 11:46:11;;;;;;;2.73;0.93;;;31.50;97.70;;;;;;5027680;28;20583;-65
2022/08/09 11:48:55;;;;;;;1.57;0.90;;;31.90;97.80;;;;;;5030261;28;20295;-65
2022/08/09 11:51:25;;;;;;;1.60;0.90;;;32.00;98.50;;;;;;5034134;28;20239;-65
2022/08/09 11:54:18;;;;;;;2.13;0.90;;;32.30;98.00;;;;;;5030523;28;20300;-64
2022/08/09 11:57:29;;;;;;;2.13;1.00;;;32.50;97.60;;;;;;5033533;28;20224;-64
2022/08/09 12:00:17;;;;;;;3.10;1.00;;;32.60;97.70;;;;;;5021323;28;20224;-64
2022/08/09 12:02:57;;;;;;;1.30;0.87;;;32.50;96.50;;;;;;5031652;28;20220;-65
2022/08/09 12:05:34;;;;;;;1.70;0.73;;;32.20;96.60;;;;;;5027348;28;20260;-64
2022/08/09 12:08:08;;;;;;;2.67;1.00;;;31.80;96.70;;;;;;5028901;28;20297;-64
2022/08/09 12:10:44;;;;;;;2.00;0.80;;;30.90;98.20;;;;;;5025397;28;20221;-65
2022/08/09 12:13:29;;;;;;;2.30;0.90;;;30.90;99.20;;;;;;5028753;28;20233;-65
2022/08/09 12:16:20;;;;;;;1.40;0.80;;;30.50;98.20;;;;;;5024715;28;20425;-65
2022/08/09 12:19:08;;;;;;;2.07;0.90;;;29.90;99.30;;;;;;5029655;28;20234;-64
2022/08/09 12:21:41;;;;;;;1.20;0.70;;;29.40;99.40;;;;;;5032626;28;20726;-64
2022/08/09 12:24:23;;;;;;;2.03;1.07;;;29.10;99.90;;;;;;5028303;28;20247;-64
2022/08/09 12:26:56;;;;;;;1.50;0.80;;;28.60;99.50;;;;;;5026419;28;20223;-66
2022/08/09 12:29:54;;;;;;;2.50;1.10;;;28.50;99.90;;;;;;5029623;28;20221;-65
2022/08/09 12:32:43;;;;;;;1.60;1.00;;;28.60;99.90;;;;;;5030985;28;20323;-64
2022/08/09 12:35:12;;;;;;;1.57;1.07;;;28.90;99.90;;;;;;5030453;28;20238;-64
2022/08/09 12:37:48;;;;;;;1.70;1.00;;;28.80;99.90;;;;;;5026178;28;20269;-64
2022/08/09 12:40:25;;;;;;;1.17;0.80;;;28.90;99.90;;;;;;5030125;28;20257;-64
2022/08/09 12:42:54;;;;;;;1.40;0.90;;;28.90;99.90;;;;;;5029943;28;20221;-64
2022/08/09 12:45:23;;;;;;;1.80;0.87;;;29.10;99.90;;;;;;5015277;28;20225;-65
2022/08/09 12:48:06;;;;;;;1.53;0.90;;;29.10;99.90;;;;;;5013627;28;20958;-64
2022/08/09 12:50:49;;;;;;;1.53;0.90;;;28.90;99.90;;;;;;5015500;28;20225;-65
2022/08/09 12:53:26;;;;;;;3.03;0.97;;;28.60;99.90;;;;;;5013679;28;21140;-65
2022/08/09 12:56:10;;;;;;;2.03;0.93;;;28.60;99.90;;;;;;5017688;28;20232;-64
2022/08/09 12:59:07;;;;;;;1.53;1.17;;;28.30;99.60;;;;;;5017453;28;20306;-65
2022/08/09 13:01:38;;;;;;;1.50;0.90;;;28.10;99.90;;;;;;5015805;28;20236;-64
2022/08/09 13:04:18;;;;;;;2.03;0.97;;;28.10;99.90;;;;;;5012830;28;20700;-65
2022/08/09 13:07:15;;;;;;;1.10;0.80;;;28.30;99.90;;;;;;5017795;28;20770;-63
2022/08/09 13:09:47;;;;;;;1.93;1.10;;;28.20;99.90;;;;;;5017419;28;20225;-65
2022/08/09 13:12:28;;;;;;;2.03;1.00;;;28.30;99.90;;;;;;5016535;28;20228;-63
2022/08/09 13:15:05;;;;;;;1.73;1.03;;;28.30;99.90;;;;;;5030425;28;20231;-58
2022/08/09 13:17:35;;;;;;;2.67;1.00;;;27.70;99.90;;;;;;5029915;28;20220;-63
2022/08/09 13:20:33;;;;;;;4.80;1.03;;;27.70;99.90;;;;;;5014370;28;20321;-60
2022/08/09 13:23:06;;;;;;;5.17;1.10;;;27.50;99.90;;;;;;5025331;28;20231;-62
2022/08/09 13:25:55;;;;;;;1.70;1.00;;;27.50;99.90;;;;;;5028752;28;20221;-58
2022/08/09 13:28:23;;;;;;;30.83;2.73;;;27.70;99.90;;;;;;5020946;28;20267;-58
2022/08/09 13:31:08;;;;;;;27.93;3.37;;;27.70;99.90;;;;;;5012680;28;20302;-59
2022/08/09 13:33:56;;;;;;;88.53;11.00;;;27.80;99.90;;;;;;5017800;28;20216;-60
2022/08/09 13:36:26;;;;;;;7.90;1.63;;;27.90;99.90;;;;;;5030205;28;20246;-59
2022/08/09 13:39:11;;;;;;;5.60;1.67;;;27.80;99.90;;;;;;5018910;28;20312;-59
2022/08/09 13:42:00;;;;;;;10.17;2.57;;;26.70;99.90;;;;;;5026753;28;20251;-55
2022/08/09 13:44:29;;;;;;;4.50;1.50;;;27.10;99.90;;;;;;5027224;28;20326;-57